createdAt,value
2022-12-25T00:01:25.145Z,26.77
2022-12-25T00:03:53.567Z,18.77
2022-12-25T00:06:20.906Z,20.67
2022-12-25T00:08:47.767Z,27.67
2022-12-25T00:11:19.739Z,18.97
2022-12-25T00:13:47.770Z,21.97
2022-12-25T00:16:24.649Z,18.90
2022-12-25T00:18:52.537Z,21.40
2022-12-25T00:21:21.020Z,20.30
2022-12-25T00:23:47.897Z,17.53
2022-12-25T00:26:17.686Z,19.47
2022-12-25T00:28:45.027Z,22.75
2022-12-25T00:31:16.671Z,19.70
2022-12-25T00:33:46.989Z,25.83
2022-12-25T00:36:18.437Z,21.75
2022-12-25T00:38:46.938Z,24.27
2022-12-25T00:41:18.095Z,18.93
2022-12-25T00:43:45.108Z,18.03
2022-12-25T00:46:13.560Z,26.77
2022-12-25T00:48:41.402Z,12.57
2022-12-25T00:51:11.724Z,16.27
2022-12-25T00:53:38.814Z,16.83
2022-12-25T00:56:08.134Z,16.57
2022-12-25T00:58:36.256Z,13.07
2022-12-25T01:01:03.935Z,20.77
2022-12-25T01:03:31.302Z,14.70
2022-12-25T01:06:05.506Z,22.13
2022-12-25T01:08:36.214Z,16.97
2022-12-25T01:11:13.805Z,13.87
2022-12-25T01:13:40.608Z,16.60
2022-12-25T01:16:10.788Z,16.87
2022-12-25T01:18:38.681Z,17.33
2022-12-25T01:21:18.151Z,22.10
2022-12-25T01:23:45.363Z,14.57
2022-12-25T01:26:15.250Z,12.63
2022-12-25T01:28:42.370Z,12.97
2022-12-25T01:31:15.238Z,12.83
2022-12-25T01:33:44.111Z,10.93
2022-12-25T01:36:23.623Z,15.70
2022-12-25T01:38:52.395Z,10.82
2022-12-25T01:41:23.641Z,9.47
2022-12-25T01:44:37.251Z,6.33
2022-12-25T01:47:06.541Z,8.90
2022-12-25T01:49:38.989Z,12.03
2022-12-25T01:52:23.911Z,12.73
2022-12-25T01:55:00.463Z,10.53
2022-12-25T01:57:34.471Z,10.60
2022-12-25T02:00:02.302Z,10.33
2022-12-25T02:02:29.701Z,10.50
2022-12-25T02:05:07.871Z,12.87
2022-12-25T02:07:38.215Z,14.40
2022-12-25T02:10:05.709Z,11.00
2022-12-25T02:12:35.467Z,17.33
2022-12-25T02:15:40.394Z,13.43
2022-12-25T02:18:48.047Z,6.13
2022-12-25T02:21:36.485Z,7.37
2022-12-25T02:24:26.421Z,8.10
2022-12-25T02:27:17.949Z,14.00
2022-12-25T02:29:56.647Z,9.67
2022-12-25T02:32:47.513Z,9.93
2022-12-25T02:35:34.927Z,12.03
2022-12-25T02:38:14.459Z,9.77
2022-12-25T02:40:46.640Z,9.97
2022-12-25T02:43:42.642Z,8.90
2022-12-25T02:46:33.168Z,5.80
2022-12-25T02:49:28.505Z,9.77
2022-12-25T02:52:24.065Z,11.60
2022-12-25T02:55:21.156Z,13.47
2022-12-25T02:58:12.466Z,10.33
2022-12-25T03:01:06.121Z,13.43
2022-12-25T03:03:58.962Z,5.53
2022-12-25T03:06:45.715Z,14.00
2022-12-25T03:09:43.491Z,16.83
2022-12-25T03:12:42.525Z,8.50
2022-12-25T03:15:31.423Z,10.30
2022-12-25T03:18:05.181Z,12.43
2022-12-25T03:20:51.716Z,6.30
2022-12-25T03:23:48.133Z,8.53
2022-12-25T03:26:33.702Z,7.93
2022-12-25T03:29:02.610Z,13.97
2022-12-25T03:31:59.979Z,15.20
2022-12-25T03:35:08.663Z,12.90
2022-12-25T03:38:07.378Z,11.43
2022-12-25T03:41:54.105Z,12.60
2022-12-25T03:44:54.034Z,14.10
2022-12-25T03:47:37.332Z,12.10
2022-12-25T03:51:20.684Z,16.47
2022-12-25T03:54:16.922Z,14.27
2022-12-25T03:57:02.917Z,10.57
2022-12-25T03:59:48.333Z,13.30
2022-12-25T04:02:33.921Z,8.97
2022-12-25T04:05:19.226Z,8.57
2022-12-25T04:08:04.805Z,13.83
2022-12-25T04:10:50.205Z,12.50
2022-12-25T04:13:35.403Z,10.57
2022-12-25T04:16:20.712Z,13.48
2022-12-25T04:19:06.060Z,11.80
2022-12-25T04:21:51.631Z,10.33
2022-12-25T04:24:37.095Z,11.00
2022-12-25T04:27:22.880Z,8.67
2022-12-25T04:30:08.369Z,11.55
2022-12-25T04:32:53.811Z,13.17
2022-12-25T04:35:39.294Z,13.97
2022-12-25T04:38:06.099Z,11.48
2022-12-25T04:40:33.021Z,15.32
2022-12-25T04:42:59.821Z,9.87
2022-12-25T04:45:26.657Z,13.40
2022-12-25T04:47:53.435Z,10.85
2022-12-25T04:50:20.437Z,7.90
2022-12-25T04:52:47.224Z,8.77
2022-12-25T04:55:14.089Z,10.50
2022-12-25T04:57:41.009Z,11.27
2022-12-25T05:00:08.871Z,8.97
2022-12-25T05:02:35.936Z,14.27
2022-12-25T05:05:03.041Z,10.37
2022-12-25T05:07:29.828Z,14.38
2022-12-25T05:09:56.765Z,6.97
2022-12-25T05:12:23.685Z,10.10
2022-12-25T05:14:50.495Z,8.33
2022-12-25T05:17:17.383Z,8.13
2022-12-25T05:19:44.231Z,9.57
2022-12-25T05:22:11.003Z,14.60
2022-12-25T05:24:37.849Z,12.90
2022-12-25T05:27:04.724Z,10.90
2022-12-25T05:29:31.578Z,10.03
2022-12-25T05:31:58.454Z,12.37
2022-12-25T05:34:25.597Z,6.27
2022-12-25T05:36:52.561Z,11.30
2022-12-25T05:39:19.543Z,11.23
2022-12-25T05:41:46.431Z,9.77
2022-12-25T05:44:13.359Z,11.43
2022-12-25T05:46:40.484Z,15.57
2022-12-25T05:49:07.444Z,10.25
2022-12-25T05:51:34.466Z,10.63
2022-12-25T05:54:01.319Z,17.77
2022-12-25T05:56:28.214Z,9.55
2022-12-25T05:58:55.222Z,7.87
2022-12-25T06:01:28.465Z,10.32
2022-12-25T06:03:56.464Z,12.00
2022-12-25T06:06:23.562Z,11.73
2022-12-25T06:08:50.420Z,10.30
2022-12-25T06:11:17.286Z,9.53
2022-12-25T06:13:44.176Z,12.40
2022-12-25T06:16:12.532Z,13.50
2022-12-25T06:18:43.477Z,9.75
2022-12-25T06:21:13.714Z,13.47
2022-12-25T06:23:42.005Z,10.60
2022-12-25T06:26:13.236Z,10.03
2022-12-25T06:28:41.167Z,14.60
2022-12-25T06:31:11.912Z,10.10
2022-12-25T06:33:38.808Z,18.00
2022-12-25T06:36:10.265Z,17.63
2022-12-25T06:38:37.201Z,11.47
2022-12-25T06:41:16.938Z,13.10
2022-12-25T06:43:48.292Z,12.00
2022-12-25T06:46:15.723Z,10.90
2022-12-25T06:48:47.960Z,14.00
2022-12-25T06:51:19.797Z,17.20
2022-12-25T06:53:48.616Z,20.60
2022-12-25T06:56:19.818Z,17.73
2022-12-25T06:58:53.419Z,16.87
2022-12-25T07:01:36.014Z,12.07
2022-12-25T07:04:15.518Z,17.53
2022-12-25T07:06:42.427Z,11.47
2022-12-25T07:09:09.223Z,12.55
2022-12-25T07:11:36.567Z,14.07
2022-12-25T07:14:03.455Z,16.23
2022-12-25T07:16:30.443Z,21.10
2022-12-25T07:19:01.211Z,15.17
2022-12-25T07:21:28.066Z,21.23
2022-12-25T07:23:54.956Z,18.00
2022-12-25T07:26:21.781Z,18.65
2022-12-25T07:28:48.588Z,20.95
2022-12-25T07:31:17.845Z,15.80
2022-12-25T07:33:45.491Z,20.43
2022-12-25T07:36:14.208Z,20.60
2022-12-25T07:38:44.256Z,18.60
2022-12-25T07:41:13.143Z,15.57
2022-12-25T07:43:40.990Z,18.93
2022-12-25T07:46:09.141Z,17.23
2022-12-25T07:48:36.919Z,15.35
2022-12-25T07:51:07.927Z,14.23
2022-12-25T07:53:36.466Z,13.00
2022-12-25T07:56:07.496Z,15.60
2022-12-25T07:58:35.293Z,15.33
2022-12-25T08:01:20.168Z,16.67
2022-12-25T08:03:56.619Z,13.30
2022-12-25T08:06:29.685Z,13.27
2022-12-25T08:09:03.447Z,14.13
2022-12-25T08:11:30.298Z,16.33
2022-12-25T08:13:57.197Z,12.88
2022-12-25T08:16:24.319Z,15.17
2022-12-25T08:18:51.696Z,13.20
2022-12-25T08:21:18.524Z,13.20
2022-12-25T08:23:47.579Z,16.27
2022-12-25T08:26:21.736Z,15.67
2022-12-25T08:28:50.233Z,12.63
2022-12-25T08:31:27.845Z,17.42
2022-12-25T08:33:58.397Z,13.27
2022-12-25T08:36:25.777Z,11.83
2022-12-25T08:38:55.668Z,12.67
2022-12-25T08:41:26.404Z,11.83
2022-12-25T08:43:53.732Z,14.53
2022-12-25T08:46:21.109Z,13.30
2022-12-25T08:48:50.220Z,13.27
2022-12-25T08:51:21.184Z,10.67
2022-12-25T08:53:50.165Z,10.07
2022-12-25T08:56:19.204Z,11.60
2022-12-25T08:58:47.020Z,10.93
2022-12-25T09:01:14.659Z,12.45
2022-12-25T09:03:42.936Z,11.77
2022-12-25T09:06:14.188Z,10.35
2022-12-25T09:08:48.262Z,11.20
2022-12-25T09:11:19.106Z,9.50
2022-12-25T09:13:46.689Z,11.55
2022-12-25T09:16:18.094Z,11.20
2022-12-25T09:18:45.224Z,9.83
2022-12-25T09:21:15.564Z,9.93
2022-12-25T09:23:42.753Z,13.40
2022-12-25T09:26:15.202Z,11.67
2022-12-25T09:28:48.430Z,9.00
2022-12-25T09:31:17.453Z,9.03
2022-12-25T09:33:44.310Z,10.60
2022-12-25T09:36:11.631Z,12.75
2022-12-25T09:38:39.055Z,13.60
2022-12-25T09:41:35.639Z,12.07
2022-12-25T09:44:32.176Z,13.93
2022-12-25T09:47:06.789Z,12.38
2022-12-25T09:49:46.749Z,9.98
2022-12-25T09:52:58.390Z,12.37
2022-12-25T09:55:30.626Z,12.77
2022-12-25T09:58:11.395Z,13.03
2022-12-25T10:00:46.767Z,8.45
2022-12-25T10:03:37.632Z,7.55
2022-12-25T10:06:20.754Z,11.77
2022-12-25T10:09:33.645Z,8.75
2022-12-25T10:13:12.991Z,6.03
2022-12-25T10:16:07.339Z,7.13
2022-12-25T10:18:44.751Z,5.65
2022-12-25T10:21:19.933Z,6.05
2022-12-25T10:24:00.143Z,10.13
2022-12-25T10:26:31.776Z,10.00
2022-12-25T10:29:06.716Z,10.13
2022-12-25T10:31:37.190Z,8.18
2022-12-25T10:34:06.270Z,5.38
2022-12-25T10:36:33.773Z,5.77
2022-12-25T10:39:00.840Z,5.70
2022-12-25T10:42:10.695Z,7.15
2022-12-25T10:44:37.591Z,7.88
2022-12-25T10:47:05.088Z,7.70
2022-12-25T10:49:39.077Z,7.43
2022-12-25T10:52:28.908Z,8.80
2022-12-25T10:54:56.663Z,8.27
2022-12-25T10:57:29.206Z,5.82
2022-12-25T10:59:57.222Z,10.60
2022-12-25T11:02:34.686Z,26.75
2022-12-25T11:05:23.623Z,30.33
2022-12-25T11:07:56.883Z,14.65
2022-12-25T11:10:38.927Z,11.40
2022-12-25T11:13:16.096Z,13.95
2022-12-25T11:15:48.039Z,9.75
2022-12-25T11:18:32.960Z,6.80
2022-12-25T11:21:14.366Z,18.88
2022-12-25T11:23:55.819Z,14.27
2022-12-25T11:26:23.244Z,17.93
2022-12-25T11:28:53.105Z,16.17
2022-12-25T11:31:24.181Z,17.10
2022-12-25T11:34:05.361Z,9.73
2022-12-25T11:36:51.945Z,11.67
2022-12-25T11:39:36.215Z,9.82
2022-12-25T11:42:20.615Z,8.77
2022-12-25T11:45:04.960Z,14.80
2022-12-25T11:47:53.131Z,6.73
2022-12-25T11:50:42.861Z,16.75
2022-12-25T11:53:36.069Z,16.13
2022-12-25T11:56:10.245Z,9.33
2022-12-25T11:58:44.748Z,10.23
2022-12-25T12:01:45.328Z,12.93
2022-12-25T12:04:35.212Z,10.45
2022-12-25T12:07:23.699Z,13.97
2022-12-25T12:10:19.253Z,9.05
2022-12-25T12:13:14.692Z,15.82
2022-12-25T12:15:49.310Z,12.68
2022-12-25T12:18:26.156Z,15.05
2022-12-25T12:21:23.765Z,12.02
2022-12-25T12:24:18.645Z,8.52
2022-12-25T12:26:59.183Z,15.20
2022-12-25T12:29:32.946Z,17.02
2022-12-25T12:32:04.817Z,17.27
2022-12-25T12:34:40.480Z,12.38
2022-12-25T12:37:36.295Z,9.38
2022-12-25T12:40:06.660Z,12.18
2022-12-25T12:42:40.355Z,13.98
2022-12-25T12:45:38.074Z,11.68
2022-12-25T12:48:26.374Z,10.18
2022-12-25T12:51:11.581Z,14.25
2022-12-25T12:53:41.829Z,18.40
2022-12-25T12:56:20.272Z,12.82
2022-12-25T12:58:50.933Z,11.68
2022-12-25T13:01:26.837Z,15.20
2022-12-25T13:04:15.602Z,16.05
2022-12-25T13:07:19.987Z,10.90
2022-12-25T13:10:08.079Z,9.25
2022-12-25T13:12:35.249Z,10.50
2022-12-25T13:15:02.138Z,15.05
2022-12-25T13:17:29.464Z,14.35
2022-12-25T13:20:01.248Z,14.05
2022-12-25T13:22:35.521Z,13.27
2022-12-25T13:25:16.571Z,21.05
2022-12-25T13:27:43.494Z,17.55
2022-12-25T13:30:20.880Z,15.15
2022-12-25T13:32:49.218Z,10.77
2022-12-25T13:35:17.638Z,13.85
2022-12-25T13:37:45.636Z,13.60
2022-12-25T13:40:26.113Z,11.57
2022-12-25T13:43:00.679Z,12.85
2022-12-25T13:45:31.555Z,15.27
2022-12-25T13:48:14.328Z,15.48
2022-12-25T13:50:46.677Z,15.35
2022-12-25T13:53:17.095Z,12.40
2022-12-25T13:55:54.857Z,14.93
2022-12-25T13:58:25.906Z,16.83
2022-12-25T14:00:57.220Z,19.13
2022-12-25T14:03:26.107Z,10.20
2022-12-25T14:06:03.085Z,12.77
2022-12-25T14:08:33.807Z,13.13
2022-12-25T14:11:08.071Z,11.15
2022-12-25T14:13:42.812Z,9.40
2022-12-25T14:16:11.247Z,10.75
2022-12-25T14:18:38.266Z,13.18
2022-12-25T14:21:21.654Z,8.60
2022-12-25T14:23:50.591Z,7.50
2022-12-25T14:26:22.354Z,8.52
2022-12-25T14:29:05.003Z,8.63
2022-12-25T14:31:33.326Z,14.98
2022-12-25T14:34:11.042Z,13.45
2022-12-25T14:36:38.529Z,9.98
2022-12-25T14:39:22.398Z,10.77
2022-12-25T14:41:54.119Z,10.80
2022-12-25T14:44:38.828Z,16.95
2022-12-25T14:47:17.650Z,11.68
2022-12-25T14:49:46.238Z,14.20
2022-12-25T14:52:18.906Z,9.90
2022-12-25T14:54:55.497Z,9.48
2022-12-25T14:57:39.292Z,14.52
2022-12-25T15:00:23.409Z,10.45
2022-12-25T15:02:54.069Z,10.77
2022-12-25T15:05:39.889Z,9.75
2022-12-25T15:08:22.313Z,17.90
2022-12-25T15:11:05.654Z,15.10
2022-12-25T15:13:32.917Z,12.60
2022-12-25T15:16:19.453Z,11.52
2022-12-25T15:18:48.249Z,13.60
2022-12-25T15:21:28.842Z,13.35
2022-12-25T15:23:58.139Z,10.32
2022-12-25T15:26:27.758Z,10.85
2022-12-25T15:28:54.645Z,16.25
2022-12-25T15:31:28.373Z,11.18
2022-12-25T15:33:58.597Z,12.45
2022-12-25T15:36:26.476Z,11.98
2022-12-25T15:38:54.571Z,7.53
2022-12-25T15:41:49.922Z,9.93
2022-12-25T15:44:17.301Z,10.80
2022-12-25T15:46:45.971Z,12.75
2022-12-25T15:49:14.787Z,9.68
2022-12-25T15:51:43.001Z,8.82
2022-12-25T15:54:10.907Z,12.02
2022-12-25T15:56:51.469Z,10.35
2022-12-25T15:59:20.395Z,9.13
2022-12-25T16:01:56.292Z,12.07
2022-12-25T16:04:25.299Z,13.40
2022-12-25T16:06:52.588Z,7.90
2022-12-25T16:09:20.513Z,10.55
2022-12-25T16:11:48.727Z,10.00
2022-12-25T16:14:15.649Z,10.40
2022-12-25T16:16:42.777Z,10.60
2022-12-25T16:19:09.682Z,12.65
2022-12-25T16:21:44.164Z,8.93
2022-12-25T16:24:11.817Z,10.07
2022-12-25T16:26:38.724Z,10.27
2022-12-25T16:29:07.532Z,12.75
2022-12-25T16:31:36.131Z,9.75
2022-12-25T16:34:04.797Z,11.45
2022-12-25T16:36:32.126Z,11.10
2022-12-25T16:38:58.972Z,11.18
2022-12-25T16:41:25.966Z,10.37
2022-12-25T16:43:52.793Z,11.57
2022-12-25T16:46:22.244Z,10.38
2022-12-25T16:48:49.460Z,14.65
2022-12-25T16:51:21.370Z,9.85
2022-12-25T16:53:48.531Z,11.27
2022-12-25T16:56:20.616Z,10.38
2022-12-25T16:58:48.190Z,11.80
2022-12-25T17:01:22.343Z,11.85
2022-12-25T17:03:51.227Z,12.07
2022-12-25T17:06:28.154Z,12.25
2022-12-25T17:08:59.546Z,15.93
2022-12-25T17:11:29.724Z,14.43
2022-12-25T17:14:01.927Z,11.23
2022-12-25T17:16:36.054Z,11.10
2022-12-25T17:19:10.971Z,9.85
2022-12-25T17:21:38.351Z,12.30
2022-12-25T17:24:06.116Z,8.57
2022-12-25T17:26:33.185Z,12.60
2022-12-25T17:29:00.501Z,12.60
2022-12-25T17:31:28.270Z,9.73
2022-12-25T17:33:55.341Z,14.23
2022-12-25T17:36:23.137Z,11.45
2022-12-25T17:38:50.118Z,11.85
2022-12-25T17:41:19.301Z,10.13
2022-12-25T17:43:47.949Z,9.15
2022-12-25T17:46:27.065Z,9.57
2022-12-25T17:48:57.698Z,10.15
2022-12-25T17:51:27.684Z,11.05
2022-12-25T17:53:59.702Z,11.30
2022-12-25T17:56:26.934Z,9.80
2022-12-25T17:58:57.077Z,10.45
2022-12-25T18:01:26.279Z,10.23
2022-12-25T18:03:53.996Z,11.73
2022-12-25T18:06:24.815Z,9.27
2022-12-25T18:08:54.353Z,13.93
2022-12-25T18:11:27.510Z,11.15
2022-12-25T18:13:55.206Z,10.55
2022-12-25T18:16:26.750Z,13.20
2022-12-25T18:18:54.073Z,13.55
2022-12-25T18:21:22.404Z,11.75
2022-12-25T18:23:50.209Z,9.40
2022-12-25T18:26:17.106Z,13.35
2022-12-25T18:28:44.008Z,13.05
2022-12-25T18:31:17.478Z,9.48
2022-12-25T18:33:45.054Z,9.57
2022-12-25T18:36:20.067Z,9.35
2022-12-25T18:38:52.179Z,11.00
2022-12-25T18:41:20.576Z,14.93
2022-12-25T18:43:53.019Z,8.73
2022-12-25T18:46:27.654Z,10.55
2022-12-25T18:48:56.629Z,12.07
2022-12-25T18:51:24.354Z,9.18
2022-12-25T18:53:51.517Z,7.43
2022-12-25T18:56:19.161Z,12.82
2022-12-25T18:58:47.777Z,8.02
2022-12-25T19:01:19.575Z,9.85
2022-12-25T19:03:49.063Z,8.95
2022-12-25T19:06:25.914Z,9.20
2022-12-25T19:08:54.121Z,8.45
2022-12-25T19:11:21.765Z,9.13
2022-12-25T19:13:48.739Z,8.50
2022-12-25T19:16:16.091Z,8.13
2022-12-25T19:18:43.875Z,8.98
2022-12-25T19:21:11.140Z,7.68
2022-12-25T19:23:38.599Z,7.50
2022-12-25T19:26:07.781Z,11.60
2022-12-25T19:28:35.664Z,10.35
2022-12-25T19:31:04.125Z,9.25
2022-12-25T19:33:32.171Z,10.68
2022-12-25T19:36:13.829Z,10.25
2022-12-25T19:38:41.703Z,7.13
2022-12-25T19:41:15.544Z,11.68
2022-12-25T19:43:45.628Z,6.70
2022-12-25T19:46:19.754Z,11.25
2022-12-25T19:48:47.294Z,8.82
2022-12-25T19:51:21.432Z,9.20
2022-12-25T19:53:48.674Z,9.98
2022-12-25T19:56:15.940Z,10.02
2022-12-25T19:58:43.523Z,8.80
2022-12-25T20:01:20.573Z,12.82
2022-12-25T20:03:49.107Z,9.95
2022-12-25T20:06:21.853Z,8.65
2022-12-25T20:08:52.566Z,8.77
2022-12-25T20:11:21.689Z,8.02
2022-12-25T20:13:48.852Z,11.13
2022-12-25T20:16:15.713Z,9.10
2022-12-25T20:18:42.639Z,9.95
2022-12-25T20:21:15.198Z,8.35
2022-12-25T20:23:48.613Z,10.18
2022-12-25T20:26:18.282Z,10.82
2022-12-25T20:28:45.849Z,13.25
2022-12-25T20:31:23.194Z,8.73
2022-12-25T20:33:50.575Z,8.73
2022-12-25T20:36:18.831Z,8.40
2022-12-25T20:38:45.663Z,9.75
2022-12-25T20:41:31.449Z,9.05
2022-12-25T20:43:58.442Z,10.23
2022-12-25T20:46:26.842Z,7.03
2022-12-25T20:48:54.053Z,8.10
2022-12-25T20:51:25.958Z,9.43
2022-12-25T20:53:53.717Z,9.52
2022-12-25T20:56:23.931Z,9.40
2022-12-25T20:59:00.109Z,10.07
2022-12-25T21:01:29.876Z,8.95
2022-12-25T21:03:57.595Z,9.10
2022-12-25T21:06:24.846Z,8.65
2022-12-25T21:08:51.583Z,8.73
2022-12-25T21:11:18.709Z,8.70
2022-12-25T21:13:46.619Z,8.98
2022-12-25T21:16:18.869Z,9.38
2022-12-25T21:18:46.800Z,9.18
2022-12-25T21:21:14.093Z,12.20
2022-12-25T21:23:41.202Z,7.72
2022-12-25T21:26:24.128Z,10.43
2022-12-25T21:28:54.998Z,10.25
2022-12-25T21:31:22.537Z,9.35
2022-12-25T21:33:52.969Z,12.15
2022-12-25T21:36:27.284Z,8.20
2022-12-25T21:39:04.707Z,9.68
2022-12-25T21:41:34.336Z,8.65
2022-12-25T21:44:01.897Z,10.00
2022-12-25T21:46:29.461Z,9.15
2022-12-25T21:48:57.825Z,7.53
2022-12-25T21:51:50.231Z,9.88
2022-12-25T21:54:19.686Z,6.90
2022-12-25T21:56:48.477Z,7.22
2022-12-25T21:59:20.596Z,8.48
2022-12-25T22:01:48.594Z,8.63
2022-12-25T22:04:17.872Z,9.57
2022-12-25T22:07:03.979Z,10.30
2022-12-25T22:09:30.966Z,7.82
2022-12-25T22:12:17.208Z,7.97
2022-12-25T22:14:56.697Z,8.32
2022-12-25T22:17:49.939Z,8.52
2022-12-25T22:20:34.371Z,8.32
2022-12-25T22:23:01.132Z,8.23
2022-12-25T22:25:27.975Z,8.50
2022-12-25T22:27:55.639Z,9.43
2022-12-25T22:30:29.621Z,7.68
2022-12-25T22:32:56.683Z,9.98
2022-12-25T22:35:24.493Z,10.65
2022-12-25T22:37:51.517Z,7.43
2022-12-25T22:40:20.337Z,6.40
2022-12-25T22:42:48.037Z,6.80
2022-12-25T22:45:14.992Z,8.15
2022-12-25T22:47:42.055Z,8.02
2022-12-25T22:50:11.107Z,7.72
2022-12-25T22:52:38.517Z,9.27
2022-12-25T22:55:07.882Z,7.60
2022-12-25T22:57:35.658Z,7.95
2022-12-25T23:00:03.426Z,9.02
2022-12-25T23:02:30.475Z,8.18
2022-12-25T23:04:57.413Z,6.35
2022-12-25T23:07:24.121Z,6.18
2022-12-25T23:09:50.861Z,7.25
2022-12-25T23:12:36.316Z,5.85
2022-12-25T23:15:03.261Z,6.70
2022-12-25T23:17:48.794Z,5.15
2022-12-25T23:20:34.168Z,6.82
2022-12-25T23:23:20.731Z,6.75
2022-12-25T23:26:06.406Z,9.00
2022-12-25T23:28:52.090Z,6.90
2022-12-25T23:31:22.519Z,4.63
2022-12-25T23:33:49.363Z,5.57
2022-12-25T23:36:16.110Z,7.25
2022-12-25T23:38:43.003Z,5.63
2022-12-25T23:41:09.776Z,4.85
2022-12-25T23:43:36.594Z,6.30
2022-12-25T23:46:03.676Z,6.60
2022-12-25T23:48:30.427Z,3.85
2022-12-25T23:51:03.194Z,5.53
2022-12-25T23:53:30.787Z,4.25
2022-12-25T23:55:57.599Z,4.75
2022-12-25T23:58:25.632Z,5.60
